createdAt,value
2022-12-12T00:03:28.665Z,6.60
2022-12-12T00:08:32.978Z,6.20
2022-12-12T00:13:35.917Z,6.20
2022-12-12T00:18:38.847Z,6.60
2022-12-12T00:23:43.099Z,6.20
2022-12-12T00:28:45.929Z,6.00
2022-12-12T00:33:50.123Z,5.80
2022-12-12T00:38:54.428Z,6.60
2022-12-12T00:43:57.176Z,5.80
2022-12-12T00:49:00.020Z,6.00
2022-12-12T00:54:04.333Z,6.40
2022-12-12T00:59:07.214Z,6.00
2022-12-12T01:04:10.069Z,5.00
2022-12-12T01:09:14.948Z,5.20
2022-12-12T01:14:17.883Z,7.00
2022-12-12T01:19:20.659Z,6.00
2022-12-12T01:24:24.839Z,5.00
2022-12-12T01:29:27.712Z,5.00
2022-12-12T01:34:30.698Z,5.20
2022-12-12T01:39:34.796Z,5.00
2022-12-12T01:44:39.529Z,6.00
2022-12-12T01:49:42.587Z,6.20
2022-12-12T01:54:48.293Z,5.60
2022-12-12T01:59:51.025Z,6.00
2022-12-12T02:04:53.795Z,6.20
2022-12-12T02:09:57.957Z,6.40
2022-12-12T02:15:00.742Z,6.00
2022-12-12T02:20:25.316Z,6.00
2022-12-12T02:25:56.145Z,5.60
2022-12-12T02:31:11.412Z,5.80
2022-12-12T02:36:16.028Z,4.00
2022-12-12T02:41:23.569Z,5.00
2022-12-12T02:46:31.235Z,6.00
2022-12-12T02:51:34.308Z,6.40
2022-12-12T02:56:47.895Z,5.00
2022-12-12T03:02:13.355Z,5.20
2022-12-12T03:07:37.119Z,5.00
2022-12-12T03:12:42.248Z,4.20
2022-12-12T03:17:49.538Z,5.40
2022-12-12T03:22:54.078Z,5.80
2022-12-12T03:27:59.818Z,5.00
2022-12-12T03:33:05.399Z,5.40
2022-12-12T03:38:10.225Z,5.80
2022-12-12T03:43:14.444Z,5.00
2022-12-12T03:48:20.126Z,5.80
2022-12-12T03:53:25.056Z,6.00
2022-12-12T03:58:28.781Z,6.00
2022-12-12T04:03:39.490Z,5.40
2022-12-12T04:09:02.410Z,5.00
2022-12-12T04:14:10.364Z,6.80
2022-12-12T04:19:35.870Z,5.00
2022-12-12T04:24:42.310Z,5.40
2022-12-12T04:29:47.518Z,5.00
2022-12-12T04:34:53.269Z,6.00
2022-12-12T04:39:57.717Z,6.00
2022-12-12T04:45:04.687Z,5.40
2022-12-12T04:50:10.590Z,5.40
2022-12-12T04:55:14.959Z,5.20
2022-12-12T05:00:20.244Z,7.20
2022-12-12T05:05:27.408Z,6.80
2022-12-12T05:10:30.186Z,7.20
2022-12-12T05:15:33.769Z,7.20
2022-12-12T05:20:38.304Z,5.00
2022-12-12T05:25:41.170Z,5.00
2022-12-12T05:30:43.950Z,6.00
2022-12-12T05:35:48.105Z,7.60
2022-12-12T05:40:50.934Z,6.00
2022-12-12T05:45:53.822Z,8.00
2022-12-12T05:50:58.061Z,6.00
2022-12-12T05:56:00.849Z,6.40
2022-12-12T06:01:04.379Z,6.00
2022-12-12T06:06:08.751Z,6.00
2022-12-12T06:11:11.517Z,5.00
2022-12-12T06:16:16.176Z,6.00
2022-12-12T06:21:20.583Z,5.00
2022-12-12T06:26:23.495Z,5.60
2022-12-12T06:31:26.270Z,6.00
2022-12-12T06:36:30.508Z,5.00
2022-12-12T06:41:33.383Z,5.00
2022-12-12T06:46:36.382Z,5.80
2022-12-12T06:51:44.131Z,6.00
2022-12-12T06:56:48.729Z,5.00
2022-12-12T07:01:51.674Z,5.00
2022-12-12T07:06:56.028Z,5.00
2022-12-12T07:11:58.845Z,6.00
2022-12-12T07:17:01.552Z,6.00
2022-12-12T07:22:10.182Z,4.40
2022-12-12T07:27:17.039Z,5.60
2022-12-12T07:32:24.193Z,5.00
2022-12-12T07:37:28.295Z,5.00
2022-12-12T07:42:31.120Z,5.00
2022-12-12T07:47:33.895Z,6.00
2022-12-12T07:52:38.078Z,5.40
2022-12-12T07:57:41.368Z,5.00
2022-12-12T08:02:46.008Z,32.00
2022-12-12T08:07:50.161Z,34.25
2022-12-12T08:12:52.988Z,25.60
2022-12-12T08:17:55.766Z,21.80
2022-12-12T08:23:00.013Z,21.60
2022-12-12T08:28:02.799Z,17.00
2022-12-12T08:33:08.199Z,16.20
2022-12-12T08:38:12.513Z,12.40
2022-12-12T08:43:15.323Z,12.40
2022-12-12T08:48:18.526Z,13.80
2022-12-12T08:53:22.683Z,12.80
2022-12-12T08:58:26.572Z,11.40
2022-12-12T09:03:29.901Z,12.60
2022-12-12T09:08:34.521Z,11.40
2022-12-12T09:13:37.742Z,9.40
2022-12-12T09:18:47.802Z,8.60
2022-12-12T09:23:52.679Z,12.40
2022-12-12T09:28:55.458Z,9.60
2022-12-12T09:33:58.241Z,9.40
2022-12-12T09:39:02.370Z,7.60
2022-12-12T09:44:07.258Z,9.40
2022-12-12T09:49:15.362Z,9.00
2022-12-12T09:54:21.601Z,8.80
2022-12-12T09:59:28.462Z,7.80
2022-12-12T10:04:36.337Z,8.60
2022-12-12T10:09:47.422Z,10.20
2022-12-12T10:14:52.171Z,6.80
2022-12-12T10:19:55.964Z,9.00
2022-12-12T10:25:07.559Z,8.20
2022-12-12T10:30:16.698Z,8.60
2022-12-12T10:35:26.479Z,7.40
2022-12-12T10:40:45.513Z,7.20
2022-12-12T10:45:54.082Z,6.20
2022-12-12T10:50:58.791Z,7.00
2022-12-12T10:56:05.123Z,6.60
2022-12-12T11:01:12.893Z,6.40
2022-12-12T11:06:16.462Z,6.80
2022-12-12T11:11:21.516Z,7.00
2022-12-12T11:16:25.737Z,6.00
2022-12-12T11:21:29.212Z,6.20
2022-12-12T11:26:38.991Z,6.80
2022-12-12T11:31:41.805Z,6.40
2022-12-12T11:36:44.584Z,7.00
2022-12-12T11:41:59.768Z,6.00
2022-12-12T11:47:24.914Z,7.60
2022-12-12T11:52:28.553Z,8.00
2022-12-12T11:57:44.699Z,6.60
2022-12-12T12:03:19.955Z,7.40
2022-12-12T12:08:30.731Z,7.00
2022-12-12T12:13:44.774Z,6.00
2022-12-12T12:18:54.819Z,6.80
2022-12-12T12:24:04.467Z,7.00
2022-12-12T12:29:17.354Z,6.00
2022-12-12T12:34:22.960Z,7.00
2022-12-12T12:39:35.961Z,7.00
2022-12-12T12:44:45.512Z,7.00
2022-12-12T12:49:50.617Z,7.00
2022-12-12T12:54:53.525Z,9.00
2022-12-12T12:59:58.873Z,6.00
2022-12-12T13:05:06.936Z,7.00
2022-12-12T13:10:17.050Z,7.00
2022-12-12T13:15:22.943Z,7.00
2022-12-12T13:20:26.355Z,6.00
2022-12-12T13:25:34.255Z,5.60
2022-12-12T13:30:44.624Z,7.00
2022-12-12T13:35:49.126Z,7.80
2022-12-12T13:40:56.849Z,6.60
2022-12-12T13:46:01.480Z,6.40
2022-12-12T13:51:36.273Z,7.00
2022-12-12T13:56:39.360Z,7.00
2022-12-12T14:01:43.665Z,7.00
2022-12-12T14:06:46.471Z,6.00
2022-12-12T14:11:49.319Z,5.00
2022-12-12T14:16:55.009Z,7.00
2022-12-12T14:21:58.037Z,6.00
2022-12-12T14:27:00.982Z,6.00
2022-12-12T14:32:17.673Z,6.00
2022-12-12T14:37:34.817Z,6.00
2022-12-12T14:43:19.938Z,6.00
2022-12-12T14:48:18.165Z,6.00
2022-12-12T14:53:22.942Z,6.00
2022-12-12T14:58:27.771Z,6.00
2022-12-12T15:03:33.429Z,6.20
2022-12-12T15:08:36.527Z,7.00
2022-12-12T15:13:39.364Z,5.00
2022-12-12T15:18:43.580Z,6.40
2022-12-12T15:23:46.516Z,6.40
2022-12-12T15:28:49.304Z,5.80
2022-12-12T15:33:53.861Z,5.40
2022-12-12T15:39:13.681Z,6.00
2022-12-12T15:44:18.304Z,6.00
2022-12-12T15:49:39.753Z,6.40
2022-12-12T15:54:49.854Z,6.00
2022-12-12T15:59:54.533Z,6.00
2022-12-12T16:05:07.280Z,6.20
2022-12-12T16:10:23.488Z,6.20
2022-12-12T16:15:34.911Z,6.00
2022-12-12T16:20:43.843Z,5.00
2022-12-12T16:25:46.678Z,5.00
2022-12-12T16:30:52.711Z,6.60
2022-12-12T16:35:57.401Z,5.80
2022-12-12T16:41:00.745Z,5.80
2022-12-12T16:46:03.836Z,6.00
2022-12-12T16:51:08.625Z,5.40
2022-12-12T16:56:11.632Z,5.60
2022-12-12T17:01:17.021Z,5.20
2022-12-12T17:06:21.271Z,5.60
2022-12-12T17:11:24.088Z,6.00
2022-12-12T17:16:28.069Z,6.00
2022-12-12T17:21:32.776Z,6.00
2022-12-12T17:26:36.246Z,7.00
2022-12-12T17:31:39.424Z,7.00
2022-12-12T17:36:43.583Z,7.40
2022-12-12T17:41:46.417Z,7.80
2022-12-12T17:46:49.327Z,7.60
2022-12-12T17:51:56.253Z,7.00
2022-12-12T17:56:59.022Z,7.40
2022-12-12T18:02:01.820Z,7.20
2022-12-12T18:07:06.216Z,7.00
2022-12-12T18:12:09.693Z,9.20
2022-12-12T18:17:12.457Z,10.80
2022-12-12T18:22:17.009Z,10.60
2022-12-12T18:27:19.943Z,10.60
2022-12-12T18:32:22.981Z,11.60
2022-12-12T18:37:27.150Z,11.20
2022-12-12T18:42:30.009Z,11.20
2022-12-12T18:47:33.438Z,12.60
2022-12-12T18:52:37.687Z,11.40
2022-12-12T18:57:40.544Z,10.40
2022-12-12T19:02:43.344Z,10.00
2022-12-12T19:07:47.903Z,9.80
2022-12-12T19:12:50.726Z,9.00
2022-12-12T19:17:55.604Z,8.60
2022-12-12T19:22:59.923Z,9.20
2022-12-12T19:28:02.990Z,9.00
2022-12-12T19:33:06.100Z,8.00
2022-12-12T19:38:10.392Z,8.20
2022-12-12T19:43:13.312Z,8.00
2022-12-12T19:48:16.167Z,9.00
2022-12-12T19:53:20.504Z,10.80
2022-12-12T19:58:23.744Z,8.60
2022-12-12T20:03:26.687Z,7.60
2022-12-12T20:08:31.032Z,8.00
2022-12-12T20:13:34.088Z,9.80
2022-12-12T20:18:36.969Z,7.80
2022-12-12T20:23:46.896Z,10.80
2022-12-12T20:28:50.261Z,7.40
2022-12-12T20:33:54.940Z,9.60
2022-12-12T20:38:59.836Z,9.20
2022-12-12T20:44:02.953Z,7.60
2022-12-12T20:49:09.200Z,7.80
2022-12-12T20:54:14.653Z,8.80
2022-12-12T20:59:17.384Z,8.40
2022-12-12T21:04:20.761Z,9.80
2022-12-12T21:09:26.851Z,8.80
2022-12-12T21:14:30.957Z,8.80
2022-12-12T21:19:33.970Z,7.00
2022-12-12T21:24:38.598Z,10.00
2022-12-12T21:29:41.550Z,9.20
2022-12-12T21:34:44.344Z,7.40
2022-12-12T21:39:50.714Z,7.40
2022-12-12T21:44:53.696Z,7.00
2022-12-12T21:49:56.441Z,6.80
2022-12-12T21:55:00.647Z,6.80
2022-12-12T22:00:04.346Z,8.00
2022-12-12T22:05:15.816Z,7.60
2022-12-12T22:10:20.423Z,9.00
2022-12-12T22:15:23.468Z,7.00
2022-12-12T22:20:26.308Z,7.20
2022-12-12T22:25:30.515Z,7.80
2022-12-12T22:30:33.458Z,8.20
2022-12-12T22:35:36.261Z,8.60
2022-12-12T22:40:40.495Z,7.20
2022-12-12T22:45:43.273Z,7.00
2022-12-12T22:50:46.164Z,7.40
2022-12-12T22:55:50.391Z,8.60
2022-12-12T23:00:53.622Z,7.20
2022-12-12T23:06:03.137Z,8.40
2022-12-12T23:11:08.877Z,6.40
2022-12-12T23:16:13.165Z,9.80
2022-12-12T23:21:17.850Z,6.80
2022-12-12T23:26:23.402Z,7.00
2022-12-12T23:31:27.686Z,8.00
2022-12-12T23:36:30.556Z,7.00
2022-12-12T23:41:34.927Z,7.00
2022-12-12T23:46:37.694Z,6.00
2022-12-12T23:51:42.058Z,7.20
2022-12-12T23:56:46.357Z,7.20
